sensor_id;sensor_type;location;lat;lon;timestamp;pressure;altitude;pressure_sealevel;temperature;humidity
8047;BME280;67150;42.516;23.358;2023-02-13T10:13:10;89822.59;;;10.12;48.66
8047;BME280;67150;42.516;23.358;2023-02-13T10:16:07;89807.09;;;11.33;48.60
8047;BME280;67150;42.516;23.358;2023-02-13T10:18:57;89798.00;;;12.48;47.21
8047;BME280;67150;42.516;23.358;2023-02-13T10:21:50;89800.69;;;13.15;46.79
8047;BME280;67150;42.516;23.358;2023-02-13T10:24:42;89801.50;;;13.57;47.14
8047;BME280;67150;42.516;23.358;2023-02-13T10:27:33;89788.56;;;14.13;47.07
8047;BME280;67150;42.516;23.358;2023-02-13T10:30:24;89795.38;;;14.13;46.59
8047;BME280;67150;42.516;23.358;2023-02-13T10:33:17;89784.97;;;13.78;48.83
8047;BME280;67150;42.516;23.358;2023-02-13T10:36:10;89783.84;;;14.72;46.33
8047;BME280;67150;42.516;23.358;2023-02-13T10:39:00;89767.53;;;15.12;46.38
8047;BME280;67150;42.516;23.358;2023-02-13T10:41:50;89732.22;;;14.73;45.87
8047;BME280;67150;42.516;23.358;2023-02-13T10:44:45;89766.44;;;15.16;46.88
8047;BME280;67150;42.516;23.358;2023-02-13T10:47:49;89766.25;;;15.55;45.69
8047;BME280;67150;42.516;23.358;2023-02-13T10:50:42;89731.50;;;15.20;45.80
8047;BME280;67150;42.516;23.358;2023-02-13T10:53:39;89755.47;;;14.79;46.98
8047;BME280;67150;42.516;23.358;2023-02-13T10:56:31;89770.13;;;14.99;46.40
8047;BME280;67150;42.516;23.358;2023-02-13T10:59:33;89771.44;;;14.17;49.64
8047;BME280;67150;42.516;23.358;2023-02-13T11:02:24;89770.31;;;12.46;43.29
8047;BME280;67150;42.516;23.358;2023-02-13T11:05:16;89755.59;;;12.39;52.63
8047;BME280;67150;42.516;23.358;2023-02-13T11:08:03;89749.34;;;11.12;45.10
8047;BME280;67150;42.516;23.358;2023-02-13T11:11:00;89759.66;;;11.83;57.39
8047;BME280;67150;42.516;23.358;2023-02-13T11:13:46;89760.00;;;13.72;49.56
8047;BME280;67150;42.516;23.358;2023-02-13T11:16:58;89751.75;;;14.96;47.14
8047;BME280;67150;42.516;23.358;2023-02-13T11:19:48;89741.44;;;15.46;44.51
8047;BME280;67150;42.516;23.358;2023-02-13T11:22:39;89741.53;;;15.45;42.28
8047;BME280;67150;42.516;23.358;2023-02-13T11:25:27;89736.94;;;15.62;41.96
8047;BME280;67150;42.516;23.358;2023-02-13T11:28:16;89736.59;;;15.91;41.79
8047;BME280;67150;42.516;23.358;2023-02-13T11:31:10;89731.13;;;16.30;41.70
8047;BME280;67150;42.516;23.358;2023-02-13T11:33:57;89717.19;;;17.13;41.23
8047;BME280;67150;42.516;23.358;2023-02-13T11:36:44;89717.84;;;17.80;40.50
8047;BME280;67150;42.516;23.358;2023-02-13T13:58:55;89627.53;;;21.49;35.40
8047;BME280;67150;42.516;23.358;2023-02-13T14:01:41;89630.09;;;21.49;34.46
8047;BME280;67150;42.516;23.358;2023-02-13T14:04:37;89625.69;;;21.23;34.03
8047;BME280;67150;42.516;23.358;2023-02-13T14:07:32;89634.88;;;21.16;34.67
8047;BME280;67150;42.516;23.358;2023-02-13T14:13:50;89631.28;;;21.37;36.39
8047;BME280;67150;42.516;23.358;2023-02-13T14:16:39;89633.41;;;21.14;34.83
8047;BME280;67150;42.516;23.358;2023-02-13T14:19:28;89624.13;;;21.13;34.50
8047;BME280;67150;42.516;23.358;2023-02-13T14:22:31;89623.56;;;21.19;34.71
8047;BME280;67150;42.516;23.358;2023-02-13T14:25:23;89627.59;;;21.21;34.97
8047;BME280;67150;42.516;23.358;2023-02-13T14:28:19;89608.75;;;21.03;34.94
8047;BME280;67150;42.516;23.358;2023-02-13T14:31:08;89612.34;;;20.93;35.05
8047;BME280;67150;42.516;23.358;2023-02-13T14:34:00;89607.00;;;20.77;35.18
8047;BME280;67150;42.516;23.358;2023-02-13T14:37:02;89610.31;;;20.59;35.24
8047;BME280;67150;42.516;23.358;2023-02-13T14:40:26;89613.59;;;20.42;35.28
8047;BME280;67150;42.516;23.358;2023-02-13T14:43:32;89604.47;;;20.30;35.36
8047;BME280;67150;42.516;23.358;2023-02-13T14:46:32;89603.38;;;20.23;35.24
8047;BME280;67150;42.516;23.358;2023-02-13T14:49:23;89606.09;;;20.12;35.36
8047;BME280;67150;42.516;23.358;2023-02-13T14:52:15;89588.09;;;19.94;35.28
8047;BME280;67150;42.516;23.358;2023-02-13T14:55:03;89603.44;;;19.85;35.33
8047;BME280;67150;42.516;23.358;2023-02-13T14:57:59;89600.50;;;19.70;35.39
8047;BME280;67150;42.516;23.358;2023-02-13T15:00:52;89604.41;;;19.55;35.36
8047;BME280;67150;42.516;23.358;2023-02-13T15:03:45;89612.34;;;19.42;35.25
8047;BME280;67150;42.516;23.358;2023-02-13T15:06:37;89605.56;;;19.22;35.81
8047;BME280;67150;42.516;23.358;2023-02-13T15:09:30;89607.72;;;19.08;35.45
8047;BME280;67150;42.516;23.358;2023-02-13T15:12:24;89602.28;;;18.91;35.59
8047;BME280;67150;42.516;23.358;2023-02-13T15:15:22;89604.91;;;18.71;35.86
8047;BME280;67150;42.516;23.358;2023-02-13T15:21:14;89608.50;;;18.38;35.83
8047;BME280;67150;42.516;23.358;2023-02-13T15:24:03;89606.69;;;18.19;36.07
8047;BME280;67150;42.516;23.358;2023-02-13T15:26:52;89611.56;;;18.02;36.15
8047;BME280;67150;42.516;23.358;2023-02-13T15:29:52;89609.69;;;17.83;36.21
8047;BME280;67150;42.516;23.358;2023-02-13T15:32:38;89614.31;;;17.68;36.20
8047;BME280;67150;42.516;23.358;2023-02-13T15:35:27;89619.00;;;17.52;36.42
8047;BME280;67150;42.516;23.358;2023-02-13T15:38:18;89621.94;;;17.36;36.45
8047;BME280;67150;42.516;23.358;2023-02-13T15:41:10;89622.09;;;17.24;36.41
8047;BME280;67150;42.516;23.358;2023-02-13T15:43:57;89618.44;;;17.06;36.51
8047;BME280;67150;42.516;23.358;2023-02-13T15:46:46;89625.19;;;16.96;36.63
8047;BME280;67150;42.516;23.358;2023-02-13T15:49:37;89621.06;;;16.84;36.61
8047;BME280;67150;42.516;23.358;2023-02-13T15:52:29;89621.19;;;16.71;36.87
8047;BME280;67150;42.516;23.358;2023-02-13T15:55:20;89617.03;;;16.59;36.79
8047;BME280;67150;42.516;23.358;2023-02-13T15:58:11;89621.66;;;16.43;36.87
8047;BME280;67150;42.516;23.358;2023-02-13T16:01:04;89627.53;;;16.32;36.92
8047;BME280;67150;42.516;23.358;2023-02-13T16:03:55;89627.75;;;16.18;36.93
8047;BME280;67150;42.516;23.358;2023-02-13T16:06:44;89628.44;;;16.09;36.96
8047;BME280;67150;42.516;23.358;2023-02-13T16:09:32;89629.38;;;15.97;37.07
8047;BME280;67150;42.516;23.358;2023-02-13T16:12:20;89627.63;;;15.86;37.27
8047;BME280;67150;42.516;23.358;2023-02-13T16:15:16;89626.78;;;15.75;37.21
8047;BME280;67150;42.516;23.358;2023-02-13T16:18:03;89622.38;;;15.65;37.16
8047;BME280;67150;42.516;23.358;2023-02-13T16:20:52;89621.66;;;15.52;37.33
8047;BME280;67150;42.516;23.358;2023-02-13T16:23:39;89622.97;;;15.45;37.36
8047;BME280;67150;42.516;23.358;2023-02-13T16:26:25;89621.31;;;15.33;37.30
8047;BME280;67150;42.516;23.358;2023-02-13T16:29:16;89621.16;;;15.24;37.64
8047;BME280;67150;42.516;23.358;2023-02-13T16:32:12;89625.16;;;15.15;37.67
8047;BME280;67150;42.516;23.358;2023-02-13T16:35:16;89628.34;;;15.06;37.67
8047;BME280;67150;42.516;23.358;2023-02-13T16:38:03;89630.75;;;14.96;37.72
8047;BME280;67150;42.516;23.358;2023-02-13T16:40:49;89626.19;;;14.89;37.90
8047;BME280;67150;42.516;23.358;2023-02-13T16:43:39;89635.38;;;14.79;37.92
8047;BME280;67150;42.516;23.358;2023-02-13T16:46:30;89630.75;;;14.73;37.90
8047;BME280;67150;42.516;23.358;2023-02-13T16:49:21;89633.09;;;14.63;37.84
8047;BME280;67150;42.516;23.358;2023-02-13T16:52:10;89627.84;;;14.53;38.15
8047;BME280;67150;42.516;23.358;2023-02-13T16:55:01;89628.47;;;14.44;38.14
8047;BME280;67150;42.516;23.358;2023-02-13T16:57:48;89626.47;;;14.37;38.20
8047;BME280;67150;42.516;23.358;2023-02-13T17:00:34;89624.25;;;14.32;38.44
8047;BME280;67150;42.516;23.358;2023-02-13T17:03:20;89618.03;;;14.24;38.46
8047;BME280;67150;42.516;23.358;2023-02-13T17:06:08;89610.06;;;14.17;38.63
8047;BME280;67150;42.516;23.358;2023-02-13T17:08:54;89618.97;;;14.10;38.70
8047;BME280;67150;42.516;23.358;2023-02-13T17:11:40;89616.16;;;14.02;38.72
8047;BME280;67150;42.516;23.358;2023-02-13T17:14:26;89614.09;;;13.94;38.87
8047;BME280;67150;42.516;23.358;2023-02-13T17:17:14;89608.66;;;13.88;38.80
8047;BME280;67150;42.516;23.358;2023-02-13T17:20:00;89609.16;;;13.80;38.76
8047;BME280;67150;42.516;23.358;2023-02-13T17:22:50;89608.66;;;13.75;38.81
8047;BME280;67150;42.516;23.358;2023-02-13T17:25:36;89605.00;;;13.67;38.77
8047;BME280;67150;42.516;23.358;2023-02-13T17:28:23;89610.38;;;13.62;38.70
8047;BME280;67150;42.516;23.358;2023-02-13T17:31:11;89615.75;;;13.58;39.00
8047;BME280;67150;42.516;23.358;2023-02-13T17:33:57;89608.47;;;13.53;39.07
8047;BME280;67150;42.516;23.358;2023-02-13T17:36:42;89618.38;;;13.43;39.10
8047;BME280;67150;42.516;23.358;2023-02-13T17:39:30;89616.84;;;13.41;39.00
8047;BME280;67150;42.516;23.358;2023-02-13T17:42:19;89613.69;;;13.37;38.99
8047;BME280;67150;42.516;23.358;2023-02-13T17:45:07;89609.84;;;13.32;39.00
8047;BME280;67150;42.516;23.358;2023-02-13T17:47:53;89611.84;;;13.27;39.25
8047;BME280;67150;42.516;23.358;2023-02-13T17:50:41;89605.38;;;13.23;39.20
8047;BME280;67150;42.516;23.358;2023-02-13T17:53:28;89607.41;;;13.18;39.23
8047;BME280;67150;42.516;23.358;2023-02-13T17:56:15;89603.31;;;13.15;39.19
8047;BME280;67150;42.516;23.358;2023-02-13T17:59:01;89606.25;;;13.09;39.16
8047;BME280;67150;42.516;23.358;2023-02-13T18:01:47;89608.34;;;13.03;39.36
8047;BME280;67150;42.516;23.358;2023-02-13T18:04:33;89601.03;;;12.98;39.15
8047;BME280;67150;42.516;23.358;2023-02-13T18:07:20;89595.84;;;12.87;39.54
8047;BME280;67150;42.516;23.358;2023-02-13T18:10:09;89589.03;;;12.75;39.67
8047;BME280;67150;42.516;23.358;2023-02-13T18:12:57;89594.72;;;12.78;39.44
8047;BME280;67150;42.516;23.358;2023-02-13T18:15:47;89589.59;;;12.66;39.79
8047;BME280;67150;42.516;23.358;2023-02-13T18:18:33;89587.81;;;12.68;39.48
8047;BME280;67150;42.516;23.358;2023-02-13T18:21:21;89598.81;;;12.67;39.67
8047;BME280;67150;42.516;23.358;2023-02-13T18:24:07;89595.13;;;12.58;39.72
8047;BME280;67150;42.516;23.358;2023-02-13T18:26:53;89588.75;;;12.53;39.60
8047;BME280;67150;42.516;23.358;2023-02-13T18:29:40;89587.69;;;12.43;39.77
8047;BME280;67150;42.516;23.358;2023-02-13T18:32:26;89585.53;;;12.36;40.15
8047;BME280;67150;42.516;23.358;2023-02-13T18:35:12;89589.06;;;12.34;39.81
8047;BME280;67150;42.516;23.358;2023-02-13T18:37:58;89583.56;;;12.27;40.01
8047;BME280;67150;42.516;23.358;2023-02-13T18:40:44;89590.44;;;12.25;40.29
8047;BME280;67150;42.516;23.358;2023-02-13T18:43:30;89592.06;;;12.26;40.01
8047;BME280;67150;42.516;23.358;2023-02-13T18:46:17;89590.38;;;12.13;40.03
8047;BME280;67150;42.516;23.358;2023-02-13T18:49:03;89581.78;;;12.15;40.36
8047;BME280;67150;42.516;23.358;2023-02-13T18:51:48;89581.44;;;12.07;40.31
8047;BME280;67150;42.516;23.358;2023-02-13T18:54:35;89583.44;;;12.02;40.17
8047;BME280;67150;42.516;23.358;2023-02-13T18:57:21;89585.16;;;12.02;40.33
8047;BME280;67150;42.516;23.358;2023-02-13T19:00:07;89593.44;;;12.04;40.24
8047;BME280;67150;42.516;23.358;2023-02-13T19:02:56;89591.69;;;11.92;40.33
8047;BME280;67150;42.516;23.358;2023-02-13T19:05:43;89594.47;;;11.87;40.61
8047;BME280;67150;42.516;23.358;2023-02-13T19:08:28;89593.47;;;11.90;40.41
8047;BME280;67150;42.516;23.358;2023-02-13T19:11:17;89593.81;;;11.84;40.43
8047;BME280;67150;42.516;23.358;2023-02-13T19:14:03;89599.22;;;11.77;40.70
8047;BME280;67150;42.516;23.358;2023-02-13T19:16:50;89595.50;;;11.69;40.54
8047;BME280;67150;42.516;23.358;2023-02-13T19:19:37;89595.34;;;11.72;40.49
8047;BME280;67150;42.516;23.358;2023-02-13T19:22:22;89588.72;;;11.71;40.68
8047;BME280;67150;42.516;23.358;2023-02-13T19:25:09;89589.03;;;11.65;40.89
8047;BME280;67150;42.516;23.358;2023-02-13T19:27:54;89591.00;;;11.60;40.64
8047;BME280;67150;42.516;23.358;2023-02-13T19:30:40;89593.44;;;11.61;40.67
8047;BME280;67150;42.516;23.358;2023-02-13T19:33:26;89602.25;;;11.54;40.95
8047;BME280;67150;42.516;23.358;2023-02-13T19:36:16;89597.97;;;11.56;40.50
8047;BME280;67150;42.516;23.358;2023-02-13T19:39:03;89588.81;;;11.40;40.89
8047;BME280;67150;42.516;23.358;2023-02-13T19:41:50;89593.28;;;11.50;40.79
8047;BME280;67150;42.516;23.358;2023-02-13T19:44:36;89599.66;;;11.42;40.92
8047;BME280;67150;42.516;23.358;2023-02-13T19:47:22;89588.75;;;11.41;41.01
8047;BME280;67150;42.516;23.358;2023-02-13T19:50:08;89595.94;;;11.33;40.85
8047;BME280;67150;42.516;23.358;2023-02-13T19:52:56;89587.47;;;11.34;41.10
8047;BME280;67150;42.516;23.358;2023-02-13T19:55:41;89587.75;;;11.30;41.00
8047;BME280;67150;42.516;23.358;2023-02-13T19:58:28;89590.28;;;11.30;40.87
8047;BME280;67150;42.516;23.358;2023-02-13T20:01:16;89583.88;;;11.24;41.15
8047;BME280;67150;42.516;23.358;2023-02-13T20:04:03;89575.47;;;11.23;40.90
8047;BME280;67150;42.516;23.358;2023-02-13T20:06:50;89576.38;;;11.22;41.13
8047;BME280;67150;42.516;23.358;2023-02-13T20:09:43;89585.94;;;11.17;41.12
8047;BME280;67150;42.516;23.358;2023-02-13T20:12:28;89578.25;;;11.19;40.91
8047;BME280;67150;42.516;23.358;2023-02-13T20:15:14;89573.50;;;11.14;41.23
8047;BME280;67150;42.516;23.358;2023-02-13T20:18:04;89568.44;;;11.14;40.90
8047;BME280;67150;42.516;23.358;2023-02-13T20:20:49;89565.56;;;11.06;41.21
8047;BME280;67150;42.516;23.358;2023-02-13T20:23:36;89570.13;;;11.00;41.35
8047;BME280;67150;42.516;23.358;2023-02-13T20:26:23;89564.91;;;11.03;41.25
8047;BME280;67150;42.516;23.358;2023-02-13T20:29:09;89563.91;;;11.05;41.31
8047;BME280;67150;42.516;23.358;2023-02-13T20:31:55;89563.22;;;11.03;41.21
8047;BME280;67150;42.516;23.358;2023-02-13T20:34:40;89557.53;;;11.00;41.23
8047;BME280;67150;42.516;23.358;2023-02-13T20:37:26;89561.91;;;10.96;41.23
8047;BME280;67150;42.516;23.358;2023-02-13T20:40:13;89563.16;;;10.89;41.24
8047;BME280;67150;42.516;23.358;2023-02-13T20:43:00;89552.63;;;10.83;41.25
8047;BME280;67150;42.516;23.358;2023-02-13T20:45:46;89551.53;;;10.87;41.34
8047;BME280;67150;42.516;23.358;2023-02-13T20:48:33;89560.00;;;10.86;41.21
8047;BME280;67150;42.516;23.358;2023-02-13T20:51:20;89547.59;;;10.83;41.31
8047;BME280;67150;42.516;23.358;2023-02-13T20:54:06;89547.75;;;10.80;41.27
8047;BME280;67150;42.516;23.358;2023-02-13T20:56:51;89539.38;;;10.79;41.39
8047;BME280;67150;42.516;23.358;2023-02-13T20:59:38;89547.94;;;10.77;41.42
8047;BME280;67150;42.516;23.358;2023-02-13T21:02:24;89536.38;;;10.73;41.41
8047;BME280;67150;42.516;23.358;2023-02-13T21:05:10;89549.25;;;10.68;41.46
8047;BME280;67150;42.516;23.358;2023-02-13T21:07:55;89547.44;;;10.70;41.51
8047;BME280;67150;42.516;23.358;2023-02-13T21:10:41;89536.81;;;10.65;41.58
8047;BME280;67150;42.516;23.358;2023-02-13T21:13:26;89540.34;;;10.62;41.61
8047;BME280;67150;42.516;23.358;2023-02-13T21:16:15;89519.13;;;10.51;41.59
8047;BME280;67150;42.516;23.358;2023-02-13T21:19:03;89520.34;;;10.59;41.42
8047;BME280;67150;42.516;23.358;2023-02-13T21:21:49;89519.03;;;10.52;41.60
8047;BME280;67150;42.516;23.358;2023-02-13T21:24:36;89517.34;;;10.53;41.77
8047;BME280;67150;42.516;23.358;2023-02-13T21:27:22;89518.94;;;10.54;41.73
8047;BME280;67150;42.516;23.358;2023-02-13T21:30:08;89507.97;;;10.55;41.38
8047;BME280;67150;42.516;23.358;2023-02-13T21:32:55;89504.91;;;10.50;41.38
8047;BME280;67150;42.516;23.358;2023-02-13T21:35:42;89514.34;;;10.46;41.82
8047;BME280;67150;42.516;23.358;2023-02-13T21:38:28;89519.50;;;10.45;41.49
8047;BME280;67150;42.516;23.358;2023-02-13T21:41:15;89518.25;;;10.36;41.59
8047;BME280;67150;42.516;23.358;2023-02-13T21:44:01;89515.56;;;10.39;41.83
8047;BME280;67150;42.516;23.358;2023-02-13T21:46:47;89526.19;;;10.30;41.66
8047;BME280;67150;42.516;23.358;2023-02-13T21:49:34;89526.25;;;10.29;41.38
8047;BME280;67150;42.516;23.358;2023-02-13T21:52:20;89525.19;;;10.33;41.70
8047;BME280;67150;42.516;23.358;2023-02-13T21:55:07;89524.63;;;10.28;41.76
8047;BME280;67150;42.516;23.358;2023-02-13T21:57:53;89512.19;;;10.25;41.68
8047;BME280;67150;42.516;23.358;2023-02-13T22:00:39;89506.44;;;10.23;41.77
8047;BME280;67150;42.516;23.358;2023-02-13T22:03:25;89505.88;;;10.18;41.76
8047;BME280;67150;42.516;23.358;2023-02-13T22:06:14;89504.09;;;10.20;41.94
8047;BME280;67150;42.516;23.358;2023-02-13T22:09:02;89504.19;;;10.18;41.65
8047;BME280;67150;42.516;23.358;2023-02-13T22:11:48;89491.81;;;10.13;41.66
8047;BME280;67150;42.516;23.358;2023-02-13T22:14:37;89500.28;;;10.12;41.80
8047;BME280;67150;42.516;23.358;2023-02-13T22:17:23;89493.75;;;10.08;41.80
8047;BME280;67150;42.516;23.358;2023-02-13T22:20:10;89500.00;;;10.01;41.87
8047;BME280;67150;42.516;23.358;2023-02-13T22:22:58;89499.28;;;9.99;41.85
8047;BME280;67150;42.516;23.358;2023-02-13T22:25:46;89502.84;;;9.95;42.17
8047;BME280;67150;42.516;23.358;2023-02-13T22:28:32;89494.44;;;9.96;41.91
8047;BME280;67150;42.516;23.358;2023-02-13T22:31:19;89492.97;;;9.92;42.25
8047;BME280;67150;42.516;23.358;2023-02-13T22:34:06;89502.25;;;9.92;42.11
8047;BME280;67150;42.516;23.358;2023-02-13T22:36:52;89494.84;;;9.89;41.98
8047;BME280;67150;42.516;23.358;2023-02-13T22:39:40;89486.31;;;9.91;41.98
8047;BME280;67150;42.516;23.358;2023-02-13T22:42:26;89485.00;;;9.84;42.09
8047;BME280;67150;42.516;23.358;2023-02-13T22:45:12;89484.38;;;9.81;42.26
8047;BME280;67150;42.516;23.358;2023-02-13T22:47:58;89476.75;;;9.82;42.07
8047;BME280;67150;42.516;23.358;2023-02-13T22:50:43;89481.06;;;9.80;42.11
8047;BME280;67150;42.516;23.358;2023-02-13T22:53:30;89481.84;;;9.81;42.11
8047;BME280;67150;42.516;23.358;2023-02-13T22:56:17;89485.44;;;9.77;42.29
8047;BME280;67150;42.516;23.358;2023-02-13T22:59:03;89473.03;;;9.74;42.34
8047;BME280;67150;42.516;23.358;2023-02-13T23:01:49;89479.81;;;9.72;42.24
8047;BME280;67150;42.516;23.358;2023-02-13T23:04:35;89478.88;;;9.74;42.00
8047;BME280;67150;42.516;23.358;2023-02-13T23:07:21;89474.00;;;9.71;42.08
8047;BME280;67150;42.516;23.358;2023-02-13T23:10:07;89468.16;;;9.71;42.06
8047;BME280;67150;42.516;23.358;2023-02-13T23:12:54;89461.97;;;9.61;42.58
8047;BME280;67150;42.516;23.358;2023-02-13T23:15:39;89466.03;;;9.63;42.43
8047;BME280;67150;42.516;23.358;2023-02-13T23:18:24;89467.00;;;9.61;42.45
8047;BME280;67150;42.516;23.358;2023-02-13T23:21:09;89463.59;;;9.62;42.51
8047;BME280;67150;42.516;23.358;2023-02-13T23:23:55;89459.72;;;9.56;42.56
8047;BME280;67150;42.516;23.358;2023-02-13T23:26:41;89459.88;;;9.53;42.52
8047;BME280;67150;42.516;23.358;2023-02-13T23:29:28;89465.47;;;9.58;42.05
8047;BME280;67150;42.516;23.358;2023-02-13T23:32:14;89463.28;;;9.52;42.53
8047;BME280;67150;42.516;23.358;2023-02-13T23:35:00;89460.69;;;9.53;42.37
8047;BME280;67150;42.516;23.358;2023-02-13T23:37:46;89461.84;;;9.48;42.36
8047;BME280;67150;42.516;23.358;2023-02-13T23:40:32;89458.41;;;9.49;42.38
8047;BME280;67150;42.516;23.358;2023-02-13T23:43:18;89450.19;;;9.45;42.27
8047;BME280;67150;42.516;23.358;2023-02-13T23:46:06;89456.97;;;9.45;42.89
8047;BME280;67150;42.516;23.358;2023-02-13T23:48:52;89453.69;;;9.43;42.42
8047;BME280;67150;42.516;23.358;2023-02-13T23:51:38;89450.38;;;9.42;42.72
8047;BME280;67150;42.516;23.358;2023-02-13T23:54:24;89434.53;;;9.25;42.30
8047;BME280;67150;42.516;23.358;2023-02-13T23:57:10;89450.78;;;9.35;42.75
8047;BME280;67150;42.516;23.358;2023-02-13T23:59:56;89453.47;;;9.32;42.60
